Time;durP1;ratioP1;P1;durP2;ratioP2;P2;SDS_P1;SDS_P2;PMS_P1;PMS_P2;Temp;Humidity;BMP_temperature;BMP_pressure;BME280_temperature;BME280_humidity;BME280_pressure;Samples;Min_cycle;Max_cycle;Signal;HPM_P1;HPM_P2
2023/12/15 00:00:00;;;;;;;;;0.00;0.00;;;;;12.34;100.00;102724.16;5050122;28;59513;-82
2023/12/15 00:02:26;;;;;;;;;0.00;0.00;;;;;12.29;100.00;102723.31;5066377;28;45542;-81
2023/12/15 00:04:51;;;;;;;;;0.00;0.00;;;;;12.31;100.00;102726.81;5068500;28;45621;-81
2023/12/15 00:07:17;;;;;;;;;0.00;0.00;;;;;12.31;100.00;102732.03;5050477;28;63278;-83
2023/12/15 00:09:42;;;;;;;;;0.00;0.00;;;;;12.32;100.00;102743.34;5073481;28;56956;-83
2023/12/15 00:12:07;;;;;;;;;0.00;0.00;;;;;12.30;100.00;102748.56;5055855;28;69214;-83
2023/12/15 00:14:33;;;;;;;;;1.00;1.00;;;;;12.24;100.00;102745.09;5075197;28;45532;-81
2023/12/15 00:16:58;;;;;;;;;0.00;0.00;;;;;12.22;100.00;102741.63;5054528;28;73271;-82
2023/12/15 00:19:23;;;;;;;;;0.00;0.00;;;;;12.30;100.00;102748.56;5055323;28;45548;-83
2023/12/15 00:21:49;;;;;;;;;0.00;0.00;;;;;12.31;100.00;102750.31;5056366;28;45362;-82
2023/12/15 00:24:14;;;;;;;;;0.00;0.00;;;;;12.31;100.00;102746.81;5077397;28;45256;-83
2023/12/15 00:26:39;;;;;;;;;0.00;0.00;;;;;12.33;100.00;102739.84;5077953;28;68889;-83
2023/12/15 00:29:07;;;;;;;;;0.00;0.00;;;;;12.32;100.00;102744.19;5078107;28;56121;-82
2023/12/15 00:31:33;;;;;;;;;0.00;0.00;;;;;12.34;100.00;102749.44;5060653;28;45405;-83
2023/12/15 00:33:58;;;;;;;;;0.00;0.00;;;;;12.32;100.00;102738.13;5059399;28;61789;-83
2023/12/15 00:36:23;;;;;;;;;0.00;0.00;;;;;12.32;100.00;102740.72;5042458;28;77415;-83
2023/12/15 00:38:49;;;;;;;;;0.00;0.00;;;;;12.30;100.00;102737.25;5042118;28;65482;-83
2023/12/15 00:41:14;;;;;;;;;0.00;0.00;;;;;12.36;100.00;102745.91;5059515;28;67850;-83
2023/12/15 00:43:39;;;;;;;;;0.00;0.00;;;;;12.30;100.00;102743.34;5059126;28;69196;-83
2023/12/15 00:46:05;;;;;;;;;0.00;0.00;;;;;12.37;100.00;102745.06;5067765;28;45298;-83
2023/12/15 00:48:30;;;;;;;;;0.00;0.00;;;;;12.37;100.00;102747.66;5077783;28;45276;-83
2023/12/15 00:50:55;;;;;;;;;0.00;0.00;;;;;12.37;100.00;102754.66;5059522;28;57840;-83
2023/12/15 00:53:21;;;;;;;;;0.00;0.00;;;;;12.40;100.00;102755.47;5058869;28;70340;-83
2023/12/15 00:55:46;;;;;;;;;0.00;0.00;;;;;12.42;100.00;102754.63;5059099;28;46001;-83
2023/12/15 00:58:13;;;;;;;;;0.00;0.00;;;;;12.40;100.00;102750.25;5060237;28;45532;-82
2023/12/15 01:00:39;;;;;;;;;0.00;0.00;;;;;12.42;100.00;102736.31;5078254;28;45440;-83
2023/12/15 01:03:04;;;;;;;;;0.00;0.00;;;;;12.42;100.00;102738.94;5043504;28;45463;-83
2023/12/15 01:05:30;;;;;;;;;0.00;0.00;;;;;12.44;100.00;102738.03;5059377;28;46269;-84
2023/12/15 01:07:55;;;;;;;;;0.00;0.00;;;;;12.39;100.00;102730.25;5042672;28;45887;-83
2023/12/15 01:10:20;;;;;;;;;0.00;0.00;;;;;12.40;100.00;102737.19;5060397;28;45408;-83
2023/12/15 01:12:45;;;;;;;;;0.00;0.00;;;;;12.40;100.00;102726.75;5077920;28;45542;-84
2023/12/15 01:15:11;;;;;;;;;0.00;0.00;;;;;12.46;100.00;102728.50;5058253;28;70116;-83
2023/12/15 01:17:36;;;;;;;;;0.00;0.00;;;;;12.50;100.00;102737.16;5077353;28;45341;-83
2023/12/15 01:20:02;;;;;;;;;0.00;0.00;;;;;12.50;100.00;102734.53;5078006;28;45473;-83
2023/12/15 01:22:27;;;;;;;;;0.00;0.00;;;;;12.84;100.00;102739.59;5058630;28;45390;-83
2023/12/15 01:24:52;;;;;;;;;0.75;0.75;;;;;12.54;100.00;102742.38;5060257;28;46830;-83
2023/12/15 01:27:18;;;;;;;;;0.00;0.00;;;;;12.47;100.00;102738.03;5077472;28;62710;-83
2023/12/15 01:29:43;;;;;;;;;0.00;0.00;;;;;12.49;100.00;102746.72;5077033;28;54941;-84
2023/12/15 01:32:08;;;;;;;;;0.00;0.00;;;;;12.50;100.00;102755.44;5077378;28;55677;-84
2023/12/15 01:34:34;;;;;;;;;0.00;0.00;;;;;12.46;100.00;102748.50;5057955;28;55266;-83
2023/12/15 01:36:59;;;;;;;;;12.00;12.00;;;;;12.45;100.00;102754.59;5058912;28;45278;-83
2023/12/15 01:39:24;;;;;;;;;0.00;0.00;;;;;12.49;100.00;102759.78;5042206;28;67750;-84
2023/12/15 01:41:50;;;;;;;;;0.00;0.00;;;;;12.49;100.00;102757.19;5059276;28;51435;-84
2023/12/15 01:44:15;;;;;;;;;0.00;0.00;;;;;12.52;100.00;102765.03;5059264;28;48080;-84
2023/12/15 01:46:40;;;;;;;;;0.00;0.00;;;;;12.50;100.00;102761.53;5037576;28;73058;-83
2023/12/15 01:49:06;;;;;;;;;0.00;0.00;;;;;12.48;100.00;102763.31;5043562;28;67151;-83
2023/12/15 01:51:31;;;;;;;;;0.00;0.00;;;;;12.53;100.00;102764.13;5059063;28;45450;-83
2023/12/15 01:53:57;;;;;;;;;0.00;0.00;;;;;12.50;100.00;102758.03;5058893;28;47326;-84
2023/12/15 01:56:22;;;;;;;;;0.00;0.00;;;;;12.51;100.00;102772.84;5041323;28;62562;-84
2023/12/15 01:58:47;;;;;;;;;0.00;0.00;;;;;12.52;100.00;102780.69;5077604;28;45418;-83
2023/12/15 02:01:13;;;;;;;;;0.00;0.00;;;;;12.53;100.00;102778.94;5059287;28;46023;-84
2023/12/15 02:03:38;;;;;;;;;0.00;0.00;;;;;12.47;100.00;102779.84;5059237;28;46510;-83
2023/12/15 02:06:03;;;;;;;;;0.75;0.75;;;;;12.51;100.00;102780.69;5058693;28;45499;-84
2023/12/15 02:08:29;;;;;;;;;0.00;0.00;;;;;12.51;100.00;102788.53;5077263;28;45364;-84
2023/12/15 02:10:54;;;;;;;;;0.00;0.00;;;;;12.57;100.00;102789.38;5058131;28;61303;-83
2023/12/15 02:13:20;;;;;;;;;0.00;0.00;;;;;12.57;100.00;102796.31;5037435;28;67546;-84
2023/12/15 02:15:45;;;;;;;;;0.00;0.00;;;;;12.58;100.00;102790.25;5061186;28;71992;-83
2023/12/15 02:18:11;;;;;;;;;0.00;0.00;;;;;12.58;100.00;102795.47;5041877;28;45455;-84
2023/12/15 02:20:36;;;;;;;;;0.00;0.00;;;;;12.56;100.00;102799.84;5059173;28;45310;-84
2023/12/15 02:23:01;;;;;;;;;0.00;0.00;;;;;12.59;100.00;102810.25;5058120;28;58304;-84
2023/12/15 02:25:27;;;;;;;;;0.00;0.00;;;;;12.58;100.00;102793.72;5058252;28;59634;-83
2023/12/15 02:27:53;;;;;;;;;0.00;0.00;;;;;12.59;100.00;102800.69;5076273;28;45162;-84
2023/12/15 02:30:19;;;;;;;;;0.00;0.00;;;;;12.57;100.00;102802.44;5077009;28;45507;-83
2023/12/15 02:32:44;;;;;;;;;0.00;0.00;;;;;12.62;100.00;102793.72;5073364;28;71157;-84
2023/12/15 02:35:11;;;;;;;;;0.00;0.00;;;;;12.66;100.00;102801.50;5058512;28;45385;-84
2023/12/15 02:37:37;;;;;;;;;0.00;0.00;;;;;12.67;100.00;102810.25;5076827;28;45617;-83
2023/12/15 02:40:03;;;;;;;;;0.00;0.00;;;;;12.70;100.00;102810.22;5058334;28;45542;-84
2023/12/15 02:42:29;;;;;;;;;0.00;0.00;;;;;12.72;100.00;102806.72;5037477;28;47127;-84
2023/12/15 02:44:54;;;;;;;;;0.00;0.00;;;;;12.74;100.00;102818.03;5068299;28;59965;-83
2023/12/15 02:47:19;;;;;;;;;0.00;0.00;;;;;12.73;100.00;102820.66;5029630;28;69776;-83
2023/12/15 02:49:44;;;;;;;;;0.00;0.00;;;;;12.74;100.00;102830.22;5076223;28;51445;-84
2023/12/15 02:52:10;;;;;;;;;0.00;0.00;;;;;12.72;100.00;102829.34;5040351;28;71816;-84
2023/12/15 02:54:35;;;;;;;;;0.00;0.00;;;;;13.15;100.00;102831.75;5040923;28;45423;-83
2023/12/15 02:57:01;;;;;;;;;0.00;0.00;;;;;13.23;100.00;102844.78;5041169;28;46555;-83
2023/12/15 02:59:26;;;;;;;;;0.00;0.00;;;;;13.27;100.00;102847.34;5058123;28;45360;-84
2023/12/15 03:01:51;;;;;;;;;0.00;0.00;;;;;13.32;100.00;102855.22;5035992;28;64050;-84
2023/12/15 03:04:17;;;;;;;;;0.00;0.00;;;;;13.33;100.00;102863.06;5037888;28;49608;-84
2023/12/15 03:06:42;;;;;;;;;0.00;0.00;;;;;13.31;100.00;102861.31;5039205;28;45489;-85
2023/12/15 03:09:08;;;;;;;;;0.00;0.00;;;;;13.27;100.00;102862.19;5022209;28;45480;-84
2023/12/15 03:11:33;;;;;;;;;0.00;0.00;;;;;13.27;100.00;102860.44;5038393;28;45404;-85
2023/12/15 03:13:59;;;;;;;;;0.00;0.00;;;;;13.30;100.00;102865.69;5056638;28;45345;-85
2023/12/15 03:16:24;;;;;;;;;0.00;0.00;;;;;13.27;100.00;102857.81;5036944;28;45383;-85
2023/12/15 03:18:50;;;;;;;;;0.00;0.00;;;;;13.30;100.00;102873.53;5056783;28;45273;-84
2023/12/15 03:21:15;;;;;;;;;0.00;0.00;;;;;13.34;100.00;102880.47;5038953;28;45727;-85
2023/12/15 03:23:40;;;;;;;;;0.00;0.00;;;;;13.33;100.00;102875.25;5056483;28;50034;-85
2023/12/15 03:26:06;;;;;;;;;0.00;0.00;;;;;13.35;100.00;102877.00;5038908;28;45340;-85
2023/12/15 03:28:31;;;;;;;;;0.00;0.00;;;;;13.35;100.00;102873.50;5022210;28;45609;-84
2023/12/15 03:30:57;;;;;;;;;0.00;0.00;;;;;13.36;100.00;102878.72;5054382;28;46313;-84
2023/12/15 03:33:26;;;;;;;;;0.00;0.00;;;;;13.38;100.00;102883.94;5055980;28;66532;-84
2023/12/15 03:35:52;;;;;;;;;0.00;0.00;;;;;13.41;100.00;102888.28;5076196;28;45448;-84
2023/12/15 03:38:18;;;;;;;;;0.00;0.00;;;;;13.39;100.00;102893.53;5028244;28;45398;-85
2023/12/15 03:40:44;;;;;;;;;0.00;0.00;;;;;13.40;100.00;102894.41;5047931;28;48176;-84
2023/12/15 03:43:09;;;;;;;;;0.00;0.00;;;;;13.35;100.00;102899.66;5057737;28;45577;-84
2023/12/15 03:45:34;;;;;;;;;0.00;0.00;;;;;13.38;100.00;102901.41;5056872;28;61256;-85
2023/12/15 03:48:00;;;;;;;;;0.00;0.00;;;;;13.39;100.00;102910.97;5057111;28;58118;-84
2023/12/15 03:50:25;;;;;;;;;0.00;0.00;;;;;13.40;100.00;102920.56;5075367;28;46484;-85
2023/12/15 03:52:50;;;;;;;;;1.00;1.00;;;;;13.36;100.00;102930.19;5040506;28;45483;-85
2023/12/15 03:55:17;;;;;;;;;0.00;0.00;;;;;13.35;100.00;102931.03;5040811;28;46539;-85
2023/12/15 03:57:42;;;;;;;;;0.00;0.00;;;;;13.33;100.00;102927.56;5057624;28;45674;-84
2023/12/15 04:00:08;;;;;;;;;0.00;0.00;;;;;13.33;100.00;102930.19;5044026;28;47187;-85
2023/12/15 04:02:33;;;;;;;;;0.00;0.00;;;;;13.31;100.00;102931.94;5078961;28;45440;-85
2023/12/15 04:04:59;;;;;;;;;0.00;0.00;;;;;13.30;100.00;102940.66;5061077;28;45421;-84
2023/12/15 04:07:25;;;;;;;;;0.00;0.00;;;;;13.33;100.00;102940.63;5061273;28;45519;-84
2023/12/15 04:09:51;;;;;;;;;0.00;0.00;;;;;13.32;100.00;102947.63;5044276;28;46895;-85
2023/12/15 04:12:17;;;;;;;;;0.00;0.00;;;;;13.34;100.00;102947.63;5061789;28;45263;-85
2023/12/15 04:14:42;;;;;;;;;0.00;0.00;;;;;13.31;100.00;102945.88;5061166;28;45707;-85
2023/12/15 04:17:07;;;;;;;;;0.00;0.00;;;;;13.29;100.00;102951.97;5060442;28;45478;-85
2023/12/15 04:19:33;;;;;;;;;0.00;0.00;;;;;13.30;100.00;102951.09;5042886;28;68698;-84
2023/12/15 04:21:58;;;;;;;;;0.00;0.00;;;;;13.28;100.00;102955.44;5059596;28;72285;-84
2023/12/15 04:24:25;;;;;;;;;0.00;0.00;;;;;13.30;100.00;102957.22;5078032;28;61771;-85
2023/12/15 04:26:51;;;;;;;;;0.00;0.00;;;;;13.33;100.00;102962.47;5060765;28;45310;-85
2023/12/15 04:29:16;;;;;;;;;0.00;0.00;;;;;13.31;100.00;102960.72;5060818;28;45474;-86
2023/12/15 04:31:43;;;;;;;;;0.00;0.00;;;;;13.28;100.00;102961.56;5053687;28;45392;-85
2023/12/15 04:34:08;;;;;;;;;0.00;0.00;;;;;13.30;100.00;102977.25;5060505;28;45490;-85
2023/12/15 04:36:33;;;;;;;;;0.00;0.00;;;;;13.26;100.00;102970.28;5060739;28;45529;-85
2023/12/15 04:38:59;;;;;;;;;0.00;0.00;;;;;13.26;100.00;102976.41;5042111;28;75786;-84
2023/12/15 04:41:25;;;;;;;;;0.00;0.00;;;;;13.28;100.00;102977.25;5059783;28;57636;-85
2023/12/15 04:43:51;;;;;;;;;0.00;0.00;;;;;13.30;100.00;102987.72;5056558;28;45388;-85
2023/12/15 04:46:28;;;;;;;;;0.00;0.00;;;;;13.29;100.00;102994.69;5040285;28;45576;-85
2023/12/15 04:48:54;;;;;;;;;0.00;0.00;;;;;13.28;100.00;102992.97;5024290;28;48262;-86
2023/12/15 04:51:20;;;;;;;;;0.00;0.00;;;;;13.16;100.00;103006.94;5043719;28;45695;-86
2023/12/15 04:53:47;;;;;;;;;0.00;0.00;;;;;13.14;100.00;102999.97;5059654;28;59122;-86
2023/12/15 04:56:13;;;;;;;;;0.00;0.00;;;;;13.13;100.00;102996.50;5060181;28;45487;-85
2023/12/15 04:58:38;;;;;;;;;0.00;0.00;;;;;13.14;100.00;102999.97;5078323;28;46098;-85
2023/12/15 05:01:03;;;;;;;;;0.00;0.00;;;;;13.16;100.00;102991.25;5059773;28;45378;-85
2023/12/15 05:03:30;;;;;;;;;0.00;0.00;;;;;13.12;100.00;103001.72;5043912;28;45286;-85
2023/12/15 05:05:55;;;;;;;;;0.00;0.00;;;;;13.16;100.00;103006.06;5060062;28;45542;-85
2023/12/15 05:08:20;;;;;;;;;0.00;0.00;;;;;13.18;100.00;103006.94;5042356;28;73037;-86
2023/12/15 05:10:45;;;;;;;;;0.00;0.00;;;;;13.14;100.00;103011.31;5058791;28;68622;-86
2023/12/15 05:13:11;;;;;;;;;0.00;0.00;;;;;13.13;100.00;103025.28;5060172;28;45362;-85
2023/12/15 05:15:39;;;;;;;;;0.00;0.00;;;;;13.17;100.00;103023.50;5042127;28;59802;-84
2023/12/15 05:18:05;;;;;;;;;0.00;0.00;;;;;13.12;100.00;103025.28;5038811;28;61721;-85
2023/12/15 05:20:31;;;;;;;;;0.00;0.00;;;;;13.13;100.00;103024.38;5054676;28;45689;-84
2023/12/15 05:22:57;;;;;;;;;0.00;0.00;;;;;13.08;100.00;103028.78;5059790;28;45458;-85
2023/12/15 05:25:22;;;;;;;;;0.00;0.00;;;;;13.05;100.00;103024.41;5077751;28;45377;-85
2023/12/15 05:27:47;;;;;;;;;0.00;0.00;;;;;13.05;100.00;103019.16;5059105;28;73941;-85
2023/12/15 05:30:13;;;;;;;;;0.00;0.00;;;;;13.06;100.00;103022.69;5077766;28;45383;-85
2023/12/15 05:32:38;;;;;;;;;0.00;0.00;;;;;13.05;100.00;103034.00;5077777;28;45356;-85
2023/12/15 05:35:04;;;;;;;;;0.00;0.00;;;;;13.03;100.00;103025.28;5078190;28;45464;-85
2023/12/15 05:37:30;;;;;;;;;0.00;0.00;;;;;13.01;100.00;103027.91;5077528;28;46989;-85
2023/12/15 05:39:57;;;;;;;;;0.00;0.00;;;;;12.98;100.00;103009.59;5059282;28;45848;-85
2023/12/15 05:42:31;;;;;;;;;0.00;0.00;;;;;13.02;100.00;103026.16;5059516;28;45496;-85
2023/12/15 05:44:56;;;;;;;;;0.00;0.00;;;;;13.02;100.00;103027.03;5045352;28;64612;-85
2023/12/15 05:47:22;;;;;;;;;0.00;0.00;;;;;13.00;100.00;103023.56;5038298;28;74344;-85
2023/12/15 05:49:47;;;;;;;;;0.00;0.00;;;;;13.02;100.00;103013.09;5039298;28;45388;-86
2023/12/15 05:52:14;;;;;;;;;0.00;0.00;;;;;13.05;100.00;103013.09;5039014;28;57396;-85
2023/12/15 05:54:40;;;;;;;;;0.00;0.00;;;;;13.09;100.00;103014.81;5022614;28;45419;-85
2023/12/15 05:57:05;;;;;;;;;0.00;0.00;;;;;13.10;100.00;103014.81;5021933;28;48256;-85
2023/12/15 05:59:31;;;;;;;;;0.00;0.00;;;;;13.10;100.00;103012.19;5038199;28;71050;-84
2023/12/15 06:01:56;;;;;;;;;0.00;0.00;;;;;13.10;100.00;103016.56;5057137;28;45494;-86
2023/12/15 06:04:21;;;;;;;;;0.00;0.00;;;;;13.04;100.00;103009.59;5057126;28;45234;-85
2023/12/15 06:06:47;;;;;;;;;0.00;0.00;;;;;13.04;100.00;103020.06;5057117;28;45570;-86
2023/12/15 06:09:12;;;;;;;;;0.00;0.00;;;;;13.03;100.00;103027.91;5056950;28;45465;-84
2023/12/15 06:11:41;;;;;;;;;0.00;0.00;;;;;13.03;100.00;103033.13;5049551;28;53477;-85
2023/12/15 06:14:07;;;;;;;;;0.00;0.00;;;;;13.04;100.00;103045.31;5041564;28;45563;-86
2023/12/15 06:16:32;;;;;;;;;0.00;0.00;;;;;13.04;100.00;103046.22;5075034;28;47270;-84
2023/12/15 06:18:58;;;;;;;;;0.00;0.00;;;;;13.02;100.00;103047.97;5057275;28;75330;-84
2023/12/15 06:21:27;;;;;;;;;0.00;0.00;;;;;13.02;100.00;103053.19;5041169;28;45322;-85
2023/12/15 06:23:53;;;;;;;;;0.00;0.00;;;;;13.03;100.00;103054.06;5058905;28;45365;-85
2023/12/15 06:26:18;;;;;;;;;0.00;0.00;;;;;13.01;100.00;103064.50;5041475;28;47180;-84
2023/12/15 06:28:44;;;;;;;;;0.00;0.00;;;;;12.98;100.00;103061.88;5076310;28;45407;-85
2023/12/15 06:31:29;;;;;;;;;0.00;0.00;;;;;12.98;100.00;103070.63;5067823;28;45472;-85
2023/12/15 06:33:55;;;;;;;;;3.00;3.00;;;;;12.99;100.00;103076.72;5042429;28;45609;-86
2023/12/15 06:36:20;;;;;;;;;0.00;0.00;;;;;12.97;100.00;103084.56;5048754;28;46071;-85
2023/12/15 06:38:48;;;;;;;;;0.00;0.00;;;;;12.99;100.00;103092.41;5057532;28;71327;-85
2023/12/15 06:41:14;;;;;;;;;0.00;0.00;;;;;12.98;100.00;103104.63;5057728;28;65189;-83
2023/12/15 06:43:44;;;;;;;;;0.00;0.00;;;;;13.06;100.00;103107.22;5054325;28;45539;-83
2023/12/15 06:46:09;;;;;;;;;0.00;0.00;;;;;13.10;100.00;103108.06;5037614;28;48571;-83
2023/12/15 06:48:35;;;;;;;;;0.00;0.00;;;;;13.10;100.00;103108.94;5038315;28;45517;-83
2023/12/15 06:51:01;;;;;;;;;1.00;1.00;;;;;13.07;100.00;103122.00;5038459;28;45389;-83
2023/12/15 06:53:26;;;;;;;;;0.00;0.00;;;;;13.06;100.00;103128.13;5038319;28;45468;-82
2023/12/15 06:55:52;;;;;;;;;0.00;0.00;;;;;13.04;100.00;103136.81;5036661;28;75966;-82
2023/12/15 06:58:17;;;;;;;;;0.00;0.00;;;;;13.05;100.00;103135.97;5023586;28;45886;-81
2023/12/15 07:00:42;;;;;;;;;0.00;0.00;;;;;13.05;100.00;103128.97;5033454;28;45410;-80
2023/12/15 07:03:08;;;;;;;;;0.00;0.00;;;;;13.03;100.00;103129.88;5075340;28;53010;-81
2023/12/15 07:05:34;;;;;;;;;0.00;0.00;;;;;13.01;100.00;103129.00;5075846;28;46162;-81
2023/12/15 07:08:00;;;;;;;;;0.00;0.00;;;;;12.97;100.00;103133.38;5076062;28;45333;-81
2023/12/15 07:10:25;;;;;;;;;0.00;0.00;;;;;12.93;100.00;103147.31;5075211;28;45339;-82
2023/12/15 07:12:51;;;;;;;;;0.00;0.00;;;;;12.93;100.00;103142.94;5056868;28;70391;-82
2023/12/15 07:15:16;;;;;;;;;0.00;0.00;;;;;12.97;100.00;103162.97;5074516;28;75472;-82
2023/12/15 07:17:41;;;;;;;;;0.00;0.00;;;;;12.95;100.00;103169.97;5057403;28;45455;-80
2023/12/15 07:20:08;;;;;;;;;0.00;0.00;;;;;12.95;100.00;103169.97;5058144;28;45421;-81
2023/12/15 07:22:33;;;;;;;;;0.00;0.00;;;;;12.96;100.00;103168.22;5054168;28;45480;-80
2023/12/15 07:25:00;;;;;;;;;0.00;0.00;;;;;12.96;100.00;103166.50;5052879;28;46252;-80
2023/12/15 07:27:25;;;;;;;;;0.00;0.00;;;;;12.96;100.00;103166.50;5053047;28;45420;-80
2023/12/15 07:29:52;;;;;;;;;0.00;0.00;;;;;12.95;100.00;103164.72;5055836;28;67592;-79
2023/12/15 07:32:17;;;;;;;;;0.00;0.00;;;;;12.93;100.00;103163.00;5075322;28;45304;-80
2023/12/15 07:34:43;;;;;;;;;0.00;0.00;;;;;12.94;100.00;103160.34;5060440;28;46346;-80
2023/12/15 07:37:08;;;;;;;;;0.00;0.00;;;;;12.93;100.00;103166.47;5060120;28;67924;-79
2023/12/15 07:39:33;;;;;;;;;0.00;0.00;;;;;12.97;100.00;103185.66;5056899;28;51407;-79
2023/12/15 07:41:59;;;;;;;;;0.00;0.00;;;;;12.98;100.00;103184.75;5074436;28;45427;-79
2023/12/15 07:44:24;;;;;;;;;0.00;0.00;;;;;12.98;100.00;103184.75;5060532;28;58048;-81
2023/12/15 07:46:51;;;;;;;;;0.00;0.00;;;;;13.01;100.00;103194.38;5077317;28;60181;-79
2023/12/15 07:49:16;;;;;;;;;0.00;0.00;;;;;13.01;100.00;103197.84;5076457;28;45547;-79
2023/12/15 07:51:42;;;;;;;;;0.00;0.00;;;;;13.02;100.00;103201.31;5069243;28;70742;-79
2023/12/15 07:54:07;;;;;;;;;0.00;0.00;;;;;12.99;100.00;103194.38;5076905;28;46451;-79
2023/12/15 07:56:33;;;;;;;;;0.00;0.00;;;;;12.99;100.00;103191.75;5065874;28;45545;-80
2023/12/15 07:58:58;;;;;;;;;0.00;0.00;;;;;13.02;100.00;103207.44;5071872;28;45427;-79
2023/12/15 08:01:24;;;;;;;;;0.00;0.00;;;;;13.01;100.00;103213.53;5072189;28;71623;-80
2023/12/15 08:03:52;;;;;;;;;0.00;0.00;;;;;13.03;100.00;103213.53;5042322;28;47026;-79
2023/12/15 08:06:17;;;;;;;;;0.00;0.00;;;;;13.05;100.00;103207.44;5057963;28;45490;-80
2023/12/15 08:08:44;;;;;;;;;0.00;0.00;;;;;13.07;100.00;103216.13;5071647;28;45495;-79
2023/12/15 08:11:10;;;;;;;;;0.00;0.00;;;;;13.06;100.00;103216.16;5077801;28;45311;-80
2023/12/15 08:13:36;;;;;;;;;0.00;0.00;;;;;13.05;100.00;103227.47;5075201;28;46206;-79
2023/12/15 08:16:03;;;;;;;;;0.00;0.00;;;;;13.07;100.00;103229.22;5076713;28;51382;-79
2023/12/15 08:18:28;;;;;;;;;0.00;0.00;;;;;13.09;100.00;103224.00;5077389;28;45392;-80
2023/12/15 08:20:54;;;;;;;;;0.00;0.00;;;;;13.11;100.00;103232.69;5058328;28;45487;-79
2023/12/15 08:23:19;;;;;;;;;0.00;0.00;;;;;13.14;100.00;103227.50;5075852;28;45378;-79
2023/12/15 08:25:44;;;;;;;;;0.00;0.00;;;;;13.19;100.00;103238.81;5058654;28;45515;-79
2023/12/15 08:28:11;;;;;;;;;0.00;0.00;;;;;13.18;100.00;103245.78;5076067;28;45512;-79
2023/12/15 08:30:37;;;;;;;;;0.00;0.00;;;;;13.24;100.00;103241.41;5050923;28;45603;-80
2023/12/15 08:33:02;;;;;;;;;0.00;0.00;;;;;13.24;100.00;103244.03;5046997;28;45292;-80
2023/12/15 08:35:28;;;;;;;;;0.00;0.00;;;;;13.26;100.00;103255.38;5076607;28;71975;-80
2023/12/15 08:37:56;;;;;;;;;0.00;0.00;;;;;13.28;100.00;103248.41;5038697;28;45271;-79
2023/12/15 08:40:22;;;;;;;;;0.00;0.00;;;;;13.30;100.00;103259.75;5058244;28;46832;-79
2023/12/15 08:42:48;;;;;;;;;0.00;0.00;;;;;13.33;100.00;103262.38;5064777;28;46416;-79
2023/12/15 08:45:13;;;;;;;;;0.00;0.00;;;;;13.32;100.00;103256.28;5065411;28;45506;-78
2023/12/15 08:47:38;;;;;;;;;0.00;0.00;;;;;13.35;100.00;103265.88;5077859;28;45741;-79
2023/12/15 08:50:04;;;;;;;;;0.00;0.00;;;;;13.39;100.00;103267.63;5059081;28;45417;-80
2023/12/15 08:52:30;;;;;;;;;0.00;0.00;;;;;13.43;100.00;103268.47;5076764;28;46312;-79
2023/12/15 08:54:55;;;;;;;;;0.00;0.00;;;;;13.47;100.00;103270.25;5059158;28;45439;-79
2023/12/15 08:57:21;;;;;;;;;0.00;0.00;;;;;13.48;100.00;103264.13;5075241;28;45474;-80
2023/12/15 08:59:46;;;;;;;;;0.00;0.00;;;;;13.55;100.00;103265.88;5075704;28;45416;-79
2023/12/15 09:02:12;;;;;;;;;0.00;0.00;;;;;13.58;100.00;103268.50;5074986;28;73353;-80
2023/12/15 09:04:37;;;;;;;;;0.00;0.00;;;;;13.61;100.00;103270.22;5058308;28;45499;-80
2023/12/15 09:07:03;;;;;;;;;0.00;0.00;;;;;13.67;100.00;103276.31;5057500;28;45496;-80
2023/12/15 09:09:28;;;;;;;;;0.00;0.00;;;;;13.70;100.00;103276.31;5057262;28;45772;-80
2023/12/15 09:11:54;;;;;;;;;0.00;0.00;;;;;13.72;100.00;103277.19;5076143;28;47069;-80
2023/12/15 09:14:21;;;;;;;;;0.00;0.00;;;;;13.77;100.00;103284.16;5057938;28;45534;-78
2023/12/15 09:16:47;;;;;;;;;0.00;0.00;;;;;13.79;100.00;103296.38;5074465;28;45480;-80
2023/12/15 09:19:13;;;;;;;;;0.00;0.00;;;;;13.80;100.00;103297.22;5075576;28;45520;-79
2023/12/15 09:21:38;;;;;;;;;0.00;0.00;;;;;13.80;100.00;103300.75;5076003;28;47288;-80
2023/12/15 09:24:04;;;;;;;;;0.00;0.00;;;;;13.90;100.00;103304.22;5076673;28;45601;-78
2023/12/15 09:26:29;;;;;;;;;0.00;0.00;;;;;13.95;100.00;103305.06;5058103;28;45550;-79
2023/12/15 09:28:54;;;;;;;;;0.00;0.00;;;;;14.01;100.00;103302.44;5075809;28;45347;-79
2023/12/15 09:31:20;;;;;;;;;0.00;0.00;;;;;14.09;100.00;103305.03;5075970;28;73822;-79
2023/12/15 09:33:45;;;;;;;;;0.00;0.00;;;;;14.17;100.00;103310.25;5076294;28;45495;-79
2023/12/15 09:36:11;;;;;;;;;0.00;0.00;;;;;14.16;100.00;103306.75;5076511;28;45478;-78
2023/12/15 09:38:36;;;;;;;;;0.00;0.00;;;;;14.17;100.00;103308.50;5076271;28;49076;-78
2023/12/15 09:41:01;;;;;;;;;0.00;0.00;;;;;14.25;100.00;103309.34;5071546;28;64228;-80
2023/12/15 09:43:27;;;;;;;;;0.00;0.00;;;;;14.32;100.00;103318.94;5036813;28;75099;-79
2023/12/15 09:45:58;;;;;;;;;0.00;0.00;;;;;14.40;100.00;103321.53;5074920;27;45441;-79
2023/12/15 09:48:24;;;;;;;;;0.00;0.00;;;;;14.51;100.00;103330.22;5051936;28;45433;-80
2023/12/15 09:50:51;;;;;;;;;0.00;0.00;;;;;14.57;100.00;103338.94;5055391;28;45606;-79
2023/12/15 09:53:18;;;;;;;;;0.00;0.00;;;;;14.62;100.00;103348.56;5052830;28;46218;-80
2023/12/15 09:55:43;;;;;;;;;4.00;4.00;;;;;14.66;100.00;103347.66;5055903;28;45687;-79
2023/12/15 09:58:08;;;;;;;;;0.00;0.00;;;;;15.02;100.00;103342.22;5055319;28;70934;-79
2023/12/15 10:00:34;;;;;;;;;0.00;0.00;;;;;15.09;100.00;103351.81;5056286;28;71590;-80
2023/12/15 10:03:00;;;;;;;;;0.00;0.00;;;;;15.26;100.00;103365.66;5055599;28;51222;-80
2023/12/15 10:05:26;;;;;;;;;0.00;0.00;;;;;15.33;100.00;103370.91;5055800;28;69171;-80
2023/12/15 10:07:52;;;;;;;;;0.00;0.00;;;;;15.48;100.00;103365.53;5053516;28;45594;-79
2023/12/15 10:10:18;;;;;;;;;0.00;0.00;;;;;15.47;100.00;103359.41;5055576;28;76141;-80
2023/12/15 10:12:44;;;;;;;;;0.00;0.00;;;;;15.53;100.00;103358.50;5075265;28;46007;-79
2023/12/15 10:15:10;;;;;;;;;0.00;0.00;;;;;15.51;100.00;103364.63;5057616;28;45548;-80
2023/12/15 10:17:35;;;;;;;;;0.00;0.00;;;;;15.62;100.00;103366.28;5063973;28;57210;-81
2023/12/15 10:20:09;;;;;;;;;4.00;4.00;;;;;15.65;100.00;103373.25;5074748;28;45558;-79
2023/12/15 10:22:34;;;;;;;;;0.00;0.00;;;;;15.72;100.00;103374.09;5050402;28;45558;-81
2023/12/15 10:25:00;;;;;;;;;0.00;0.00;;;;;15.89;100.00;103382.72;5074806;28;45760;-81
2023/12/15 10:27:25;;;;;;;;;7.00;3.00;;;;;15.98;100.00;103385.25;5052550;28;48963;-80
2023/12/15 10:29:51;;;;;;;;;0.00;0.00;;;;;16.11;100.00;103387.78;5055034;28;75297;-80
2023/12/15 10:32:16;;;;;;;;;0.00;0.00;;;;;16.11;100.00;103393.91;5054084;28;45590;-78
2023/12/15 10:34:42;;;;;;;;;2.67;2.67;;;;;16.16;100.00;103401.75;5072144;28;60327;-79
2023/12/15 10:37:08;;;;;;;;;3.00;1.00;;;;;16.13;100.00;103422.78;5069344;28;71556;-79
2023/12/15 10:39:33;;;;;;;;;0.00;0.00;;;;;16.04;100.00;103419.34;5055128;28;74501;-79
2023/12/15 10:41:59;;;;;;;;;0.00;0.00;;;;;15.92;100.00;103419.47;5047652;28;46893;-81
2023/12/15 10:44:26;;;;;;;;;0.25;0.25;;;;;15.93;100.00;103417.72;5057532;28;50415;-79
2023/12/15 10:46:52;;;;;;;;;3.75;3.75;;;;;15.95;100.00;103419.41;5056278;28;45495;-79
2023/12/15 10:49:18;;;;;;;;;0.00;0.00;;;;;15.90;100.00;103423.88;5039247;28;47331;-80
2023/12/15 10:51:46;;;;;;;;;0.00;0.00;;;;;15.93;100.00;103430.84;5039642;28;46152;-78
2023/12/15 10:54:15;;;;;;;;;0.00;0.00;;;;;16.02;100.00;103434.25;5076334;28;45422;-79
2023/12/15 10:56:40;;;;;;;;;0.00;0.00;;;;;16.05;100.00;103436.88;5056706;28;45653;-80
2023/12/15 10:59:06;;;;;;;;;0.00;0.00;;;;;16.14;100.00;103449.06;5056879;28;45970;-80
2023/12/15 11:01:34;;;;;;;;;0.00;0.00;;;;;16.15;100.00;103449.91;5073112;28;45427;-80
2023/12/15 11:04:00;;;;;;;;;0.00;0.00;;;;;16.05;100.00;103470.16;5056924;28;45371;-80
2023/12/15 11:06:34;;;;;;;;;0.00;0.00;;;;;15.92;100.00;103472.00;5050243;28;45452;-80
2023/12/15 11:09:06;;;;;;;;;0.00;0.00;;;;;15.80;100.00;103480.84;5075259;28;46062;-80